createdAt,value
2023-01-23T00:00:42.871Z,11.20
2023-01-23T00:03:09.207Z,12.82
2023-01-23T00:05:35.561Z,14.50
2023-01-23T00:08:01.944Z,13.85
2023-01-23T00:10:28.325Z,11.63
2023-01-23T00:12:54.684Z,11.50
2023-01-23T00:15:21.021Z,10.85
2023-01-23T00:17:48.364Z,10.93
2023-01-23T00:20:14.798Z,11.45
2023-01-23T00:22:41.200Z,12.35
2023-01-23T00:25:07.861Z,11.95
2023-01-23T00:27:34.266Z,11.23
2023-01-23T00:30:00.578Z,12.90
2023-01-23T00:32:27.830Z,12.10
2023-01-23T00:34:54.187Z,12.98
2023-01-23T00:37:20.632Z,13.38
2023-01-23T00:39:50.887Z,11.43
2023-01-23T00:42:18.555Z,13.52
2023-01-23T00:44:44.927Z,12.82
2023-01-23T00:47:11.399Z,14.60
2023-01-23T00:49:37.741Z,11.13
2023-01-23T00:52:04.788Z,13.82
2023-01-23T00:54:31.124Z,12.93
2023-01-23T00:56:57.846Z,11.80
2023-01-23T00:59:24.374Z,12.27
2023-01-23T01:01:51.002Z,11.52
2023-01-23T01:04:17.472Z,11.65
2023-01-23T01:06:43.782Z,11.20
2023-01-23T01:09:10.121Z,11.85
2023-01-23T01:11:37.496Z,12.27
2023-01-23T01:14:03.946Z,12.50
2023-01-23T01:16:30.468Z,10.23
2023-01-23T01:18:58.416Z,12.65
2023-01-23T01:21:24.753Z,13.07
2023-01-23T01:23:51.149Z,13.27
2023-01-23T01:26:22.897Z,11.82
2023-01-23T01:28:50.148Z,11.80
2023-01-23T01:31:16.559Z,13.88
2023-01-23T01:33:43.659Z,11.50
2023-01-23T01:36:11.667Z,11.02
2023-01-23T01:38:37.998Z,12.82
2023-01-23T01:41:05.731Z,12.07
2023-01-23T01:43:33.739Z,11.80
2023-01-23T01:46:09.049Z,13.07
2023-01-23T01:48:42.066Z,11.48
2023-01-23T01:51:18.386Z,11.13
2023-01-23T01:53:47.201Z,15.18
2023-01-23T01:56:14.249Z,13.13
2023-01-23T01:58:42.353Z,13.25
2023-01-23T02:01:09.064Z,12.38
2023-01-23T02:03:35.971Z,12.30
2023-01-23T02:08:33.792Z,11.23
2023-01-23T02:11:03.280Z,13.18
2023-01-23T02:13:35.945Z,13.35
2023-01-23T02:16:07.044Z,12.73
2023-01-23T02:18:34.722Z,12.68
2023-01-23T02:21:03.774Z,12.25
2023-01-23T02:23:33.231Z,13.70
2023-01-23T02:26:32.931Z,11.63
2023-01-23T02:28:59.615Z,10.82
2023-01-23T02:31:31.192Z,11.98
2023-01-23T02:33:59.617Z,11.40
2023-01-23T02:36:28.843Z,11.02
2023-01-23T02:39:02.433Z,11.73
2023-01-23T02:41:33.674Z,12.38
2023-01-23T02:44:03.282Z,9.80
2023-01-23T02:46:30.359Z,15.13
2023-01-23T02:48:57.350Z,11.70
2023-01-23T02:51:24.598Z,12.20
2023-01-23T02:53:51.342Z,10.93
2023-01-23T02:59:03.090Z,14.82
2023-01-23T03:01:29.495Z,12.85
2023-01-23T03:03:56.421Z,11.27
2023-01-23T03:08:50.535Z,11.93
2023-01-23T03:11:18.363Z,12.35
2023-01-23T03:13:45.455Z,12.18
2023-01-23T03:16:12.808Z,12.50
2023-01-23T03:18:52.705Z,13.02
2023-01-23T03:21:20.576Z,13.13
2023-01-23T03:23:48.280Z,12.07
2023-01-23T03:26:14.754Z,12.23
2023-01-23T03:28:59.803Z,13.40
2023-01-23T03:31:26.288Z,13.43
2023-01-23T03:33:53.410Z,11.63
2023-01-23T03:36:20.278Z,14.05
2023-01-23T03:39:09.911Z,10.68
2023-01-23T03:41:38.189Z,12.95
2023-01-23T03:44:06.178Z,13.07
2023-01-23T03:46:32.552Z,11.88
2023-01-23T03:48:59.147Z,11.45
2023-01-23T03:51:25.681Z,10.98
2023-01-23T03:53:53.067Z,11.88
2023-01-23T03:56:19.481Z,12.88
2023-01-23T03:58:45.912Z,11.18
2023-01-23T04:03:41.281Z,12.40
2023-01-23T04:06:07.793Z,11.25
2023-01-23T04:08:34.322Z,13.35
2023-01-23T04:11:05.342Z,10.88
2023-01-23T04:13:32.223Z,13.25
2023-01-23T04:15:59.998Z,13.10
2023-01-23T04:20:52.896Z,10.95
2023-01-23T04:23:20.967Z,11.23
2023-01-23T04:25:47.713Z,12.70
2023-01-23T04:28:15.133Z,12.35
2023-01-23T04:30:41.696Z,12.88
2023-01-23T04:33:15.871Z,15.07
2023-01-23T04:35:48.765Z,12.35
2023-01-23T04:38:15.159Z,12.48
2023-01-23T04:40:41.505Z,12.45
2023-01-23T04:43:07.850Z,13.48
2023-01-23T04:45:39.586Z,12.38
2023-01-23T04:48:18.266Z,11.27
2023-01-23T04:50:44.707Z,16.55
2023-01-23T04:53:11.823Z,12.80
2023-01-23T04:55:38.546Z,14.77
2023-01-23T04:58:07.588Z,13.18
2023-01-23T05:00:33.983Z,13.73
2023-01-23T05:03:02.559Z,12.30
2023-01-23T05:05:31.363Z,14.73
2023-01-23T05:08:00.092Z,11.93
2023-01-23T05:10:26.502Z,12.43
2023-01-23T05:12:54.852Z,12.70
2023-01-23T05:15:21.778Z,13.10
2023-01-23T05:17:50.078Z,16.75
2023-01-23T05:20:16.781Z,12.82
2023-01-23T05:25:25.005Z,13.65
2023-01-23T05:27:52.188Z,11.10
2023-01-23T05:30:20.569Z,13.85
2023-01-23T05:32:50.548Z,13.38
2023-01-23T05:35:20.032Z,11.95
2023-01-23T05:37:53.212Z,12.20
2023-01-23T05:40:23.216Z,13.82
2023-01-23T05:43:24.644Z,15.77
2023-01-23T05:46:17.378Z,11.75
2023-01-23T05:48:51.011Z,11.93
2023-01-23T05:51:19.086Z,13.00
2023-01-23T05:53:45.559Z,13.00
2023-01-23T05:56:12.955Z,12.88
2023-01-23T05:59:03.695Z,12.32
2023-01-23T06:01:42.244Z,12.68
2023-01-23T06:04:31.535Z,13.23
2023-01-23T06:07:14.468Z,15.13
2023-01-23T06:09:40.910Z,14.18
2023-01-23T06:12:07.662Z,13.57
2023-01-23T06:14:34.038Z,12.32
2023-01-23T06:17:00.454Z,12.85
2023-01-23T06:19:26.813Z,12.10
2023-01-23T06:21:53.337Z,13.20
2023-01-23T06:24:19.842Z,12.00
2023-01-23T06:26:48.530Z,12.73
2023-01-23T06:29:15.076Z,13.32
2023-01-23T06:31:41.596Z,13.20
2023-01-23T06:34:08.158Z,16.15
2023-01-23T06:36:41.482Z,14.30
2023-01-23T06:39:08.058Z,13.45
2023-01-23T06:41:40.136Z,12.60
2023-01-23T06:44:07.953Z,12.63
2023-01-23T06:46:35.220Z,12.65
2023-01-23T06:49:04.502Z,12.57
2023-01-23T06:51:35.210Z,12.68
2023-01-23T06:54:02.533Z,13.32
2023-01-23T06:58:55.940Z,13.80
2023-01-23T07:01:28.954Z,13.73
2023-01-23T07:04:13.315Z,14.43
2023-01-23T07:06:41.251Z,15.15
2023-01-23T07:09:08.489Z,13.88
2023-01-23T07:11:37.305Z,11.98
2023-01-23T07:14:05.520Z,12.32
2023-01-23T07:16:35.037Z,12.75
2023-01-23T07:19:02.433Z,15.18
2023-01-23T07:21:32.239Z,13.90
2023-01-23T07:23:58.787Z,13.90
2023-01-23T07:26:25.195Z,13.48
2023-01-23T07:28:51.658Z,13.65
2023-01-23T07:31:18.117Z,13.52
2023-01-23T07:33:44.564Z,14.75
2023-01-23T07:36:13.808Z,13.10
2023-01-23T07:38:40.521Z,11.65
2023-01-23T07:41:06.901Z,12.77
2023-01-23T07:43:33.224Z,12.65
2023-01-23T07:46:00.157Z,15.23
2023-01-23T07:50:52.900Z,13.48
2023-01-23T07:53:19.307Z,13.93
2023-01-23T07:55:45.631Z,14.52
2023-01-23T07:58:12.048Z,14.23
2023-01-23T08:00:39.106Z,14.25
2023-01-23T08:03:05.497Z,14.95
2023-01-23T08:05:31.794Z,14.00
2023-01-23T08:08:12.057Z,15.07
2023-01-23T08:10:39.640Z,15.38
2023-01-23T08:13:06.007Z,14.73
2023-01-23T08:15:32.537Z,15.77
2023-01-23T08:17:58.911Z,14.48
2023-01-23T08:20:25.304Z,14.52
2023-01-23T08:22:51.602Z,16.85
2023-01-23T08:25:18.046Z,16.05
2023-01-23T08:27:44.356Z,13.50
2023-01-23T08:30:10.974Z,15.30
2023-01-23T08:32:37.325Z,17.77
2023-01-23T08:35:04.787Z,14.80
2023-01-23T08:37:33.149Z,15.20
2023-01-23T08:39:59.491Z,16.27
2023-01-23T08:42:26.232Z,18.55
2023-01-23T08:44:52.611Z,15.68
2023-01-23T08:47:18.983Z,17.45
2023-01-23T08:49:45.342Z,14.82
2023-01-23T08:52:11.676Z,15.80
2023-01-23T08:54:38.061Z,15.02
2023-01-23T08:57:05.111Z,15.77
2023-01-23T08:59:31.518Z,14.48
2023-01-23T09:01:57.945Z,15.93
2023-01-23T09:04:24.377Z,17.02
2023-01-23T09:06:52.820Z,15.15
2023-01-23T09:09:19.840Z,16.23
2023-01-23T09:11:49.252Z,18.13
2023-01-23T09:14:15.687Z,18.20
2023-01-23T09:16:42.336Z,17.50
2023-01-23T09:19:10.269Z,18.27
2023-01-23T09:21:36.714Z,15.32
2023-01-23T09:24:03.159Z,15.00
2023-01-23T09:26:29.560Z,14.75
2023-01-23T09:28:55.920Z,16.00
2023-01-23T09:31:22.296Z,19.48
2023-01-23T09:33:48.821Z,17.48
2023-01-23T09:36:15.390Z,18.85
2023-01-23T09:38:41.909Z,19.30
2023-01-23T09:41:10.464Z,19.48
2023-01-23T09:44:00.311Z,16.65
2023-01-23T09:46:32.536Z,18.73
2023-01-23T09:49:01.976Z,18.83
2023-01-23T09:51:34.188Z,19.95
2023-01-23T09:54:27.048Z,20.23
2023-01-23T09:56:55.415Z,21.42
2023-01-23T09:59:29.613Z,20.77
2023-01-23T10:01:56.132Z,20.80
2023-01-23T10:04:23.464Z,19.25
2023-01-23T10:07:05.716Z,19.58
2023-01-23T10:09:34.908Z,15.00
2023-01-23T10:12:20.160Z,21.02
2023-01-23T10:15:00.240Z,21.15
2023-01-23T10:17:26.590Z,20.70
2023-01-23T10:20:12.863Z,18.45
2023-01-23T10:22:41.713Z,18.80
2023-01-23T10:25:22.777Z,18.38
2023-01-23T10:27:50.185Z,21.40
2023-01-23T10:30:30.431Z,17.83
2023-01-23T10:33:02.090Z,17.23
2023-01-23T10:35:53.061Z,19.20
2023-01-23T10:38:41.714Z,20.80
2023-01-23T10:41:13.627Z,21.27
2023-01-23T10:43:44.554Z,19.90
2023-01-23T10:46:10.985Z,18.58
2023-01-23T10:48:44.755Z,17.77
2023-01-23T10:51:27.677Z,19.90
2023-01-23T10:54:06.137Z,23.70
2023-01-23T10:56:34.129Z,17.98
2023-01-23T10:59:01.609Z,16.75
2023-01-23T11:01:30.175Z,16.38
2023-01-23T11:03:56.637Z,19.50
2023-01-23T11:06:25.883Z,20.05
2023-01-23T11:08:55.621Z,18.80
2023-01-23T11:11:24.791Z,17.67
2023-01-23T11:14:05.580Z,17.90
2023-01-23T11:16:32.047Z,17.73
2023-01-23T11:19:12.251Z,16.85
2023-01-23T11:21:50.064Z,18.02
2023-01-23T11:24:24.925Z,18.33
2023-01-23T11:27:02.179Z,16.95
2023-01-23T11:29:30.360Z,16.90
2023-01-23T11:32:02.802Z,17.05
2023-01-23T11:34:34.414Z,16.50
2023-01-23T11:37:21.043Z,18.60
2023-01-23T11:39:50.636Z,18.50
2023-01-23T11:42:17.979Z,16.92
2023-01-23T11:44:46.356Z,18.55
2023-01-23T11:47:33.570Z,17.42
2023-01-23T11:49:59.893Z,16.85
2023-01-23T11:52:36.422Z,16.17
2023-01-23T11:55:34.293Z,16.17
2023-01-23T11:58:03.911Z,16.15
2023-01-23T12:00:37.652Z,17.33
2023-01-23T12:03:06.781Z,17.02
2023-01-23T12:05:52.134Z,16.23
2023-01-23T12:08:30.389Z,17.05
2023-01-23T12:11:02.849Z,16.48
2023-01-23T12:13:37.691Z,16.60
2023-01-23T12:16:10.067Z,17.15
2023-01-23T12:18:45.374Z,17.17
2023-01-23T12:21:19.209Z,15.32
2023-01-23T12:23:59.461Z,16.80
2023-01-23T12:26:27.448Z,15.95
2023-01-23T12:28:56.905Z,15.68
2023-01-23T12:31:42.119Z,20.20
2023-01-23T12:34:30.792Z,16.27
2023-01-23T12:37:14.156Z,16.48
2023-01-23T12:39:51.408Z,17.55
2023-01-23T12:42:21.903Z,18.98
2023-01-23T12:44:53.959Z,14.80
2023-01-23T12:47:23.212Z,14.32
2023-01-23T12:49:52.406Z,17.10
2023-01-23T12:52:37.627Z,14.52
2023-01-23T12:55:21.263Z,16.77
2023-01-23T12:58:00.030Z,15.02
2023-01-23T13:00:43.262Z,15.07
2023-01-23T13:03:37.282Z,20.02
2023-01-23T13:06:07.589Z,15.52
2023-01-23T13:08:40.521Z,15.43
2023-01-23T13:11:42.037Z,16.77
2023-01-23T13:14:17.609Z,15.45
2023-01-23T13:16:48.198Z,15.75
2023-01-23T13:19:47.207Z,16.52
2023-01-23T13:22:29.075Z,15.85
2023-01-23T13:25:10.052Z,14.73
2023-01-23T13:27:47.408Z,15.90
2023-01-23T13:30:23.922Z,14.88
2023-01-23T13:32:53.617Z,14.05
2023-01-23T13:35:44.551Z,15.60
2023-01-23T13:38:32.175Z,14.20
2023-01-23T13:41:04.394Z,14.10
2023-01-23T13:43:53.818Z,14.35
2023-01-23T13:46:26.215Z,16.77
2023-01-23T14:22:36.418Z,13.93
2023-01-23T14:25:03.322Z,13.75
2023-01-23T14:27:44.428Z,13.73
2023-01-23T14:30:19.043Z,14.73
2023-01-23T14:32:48.091Z,13.77
2023-01-23T14:35:19.375Z,13.93
2023-01-23T14:37:46.454Z,14.27
2023-01-23T14:40:25.748Z,13.10
2023-01-23T14:43:00.511Z,12.38
2023-01-23T14:45:29.000Z,13.82
2023-01-23T14:48:05.079Z,13.20
2023-01-23T14:50:32.259Z,12.77
2023-01-23T14:53:00.102Z,13.57
2023-01-23T14:55:29.753Z,14.10
2023-01-23T14:58:00.057Z,13.35
2023-01-23T15:00:27.741Z,13.65
2023-01-23T15:02:55.843Z,14.05
2023-01-23T15:05:23.995Z,13.35
2023-01-23T15:07:56.358Z,14.38
2023-01-23T15:10:24.251Z,13.65
2023-01-23T15:12:53.638Z,14.90
2023-01-23T15:15:21.767Z,13.15
2023-01-23T15:17:48.854Z,13.98
2023-01-23T15:20:30.607Z,13.05
2023-01-23T15:22:57.746Z,13.23
2023-01-23T15:25:26.926Z,15.75
2023-01-23T15:27:53.374Z,13.13
2023-01-23T15:30:35.061Z,12.18
2023-01-23T15:33:06.897Z,13.50
2023-01-23T15:35:34.395Z,13.27
2023-01-23T15:38:04.788Z,14.55
2023-01-23T15:40:32.530Z,14.00
2023-01-23T15:43:08.280Z,13.10
2023-01-23T15:45:34.639Z,12.37
2023-01-23T15:48:01.038Z,12.30
2023-01-23T15:50:27.775Z,14.48
2023-01-23T15:55:21.829Z,13.55
2023-01-23T15:57:48.988Z,12.57
2023-01-23T16:00:16.339Z,13.65
2023-01-23T16:02:55.209Z,12.20
2023-01-23T16:05:27.319Z,13.10
2023-01-23T16:07:53.818Z,12.88
2023-01-23T16:10:21.534Z,12.30
2023-01-23T16:12:49.773Z,14.25
2023-01-23T16:15:17.720Z,13.73
2023-01-23T16:17:44.139Z,12.43
2023-01-23T16:20:20.687Z,13.50
2023-01-23T16:25:41.895Z,13.35
2023-01-23T16:28:15.992Z,13.68
2023-01-23T16:30:42.662Z,11.98
2023-01-23T16:33:09.467Z,12.98
2023-01-23T16:38:02.166Z,12.80
2023-01-23T16:40:31.954Z,12.85
2023-01-23T16:42:59.905Z,12.60
2023-01-23T16:45:27.749Z,12.25
2023-01-23T16:47:54.537Z,12.50
2023-01-23T16:50:26.891Z,11.93
2023-01-23T16:53:03.476Z,13.18
2023-01-23T16:58:20.389Z,12.63
2023-01-23T17:00:49.562Z,12.20
2023-01-23T17:03:23.224Z,13.73
2023-01-23T17:05:49.647Z,13.50
2023-01-23T17:08:17.436Z,12.77
2023-01-23T17:10:46.516Z,13.80
2023-01-23T17:13:13.749Z,14.27
2023-01-23T17:15:40.090Z,13.23
2023-01-23T17:18:06.840Z,14.30
2023-01-23T17:20:33.190Z,13.50
2023-01-23T17:22:59.514Z,14.10
2023-01-23T17:25:26.814Z,14.20
2023-01-23T17:28:11.639Z,15.55
2023-01-23T17:30:39.618Z,14.48
2023-01-23T17:33:06.295Z,14.68
2023-01-23T17:35:34.686Z,14.35
2023-01-23T17:38:01.344Z,14.95
2023-01-23T17:40:28.317Z,14.05
2023-01-23T17:42:54.984Z,15.30
2023-01-23T17:45:23.521Z,14.98
2023-01-23T17:47:54.796Z,15.68
2023-01-23T17:50:25.078Z,16.10
2023-01-23T17:52:52.235Z,14.75
2023-01-23T17:55:24.302Z,14.43
2023-01-23T17:57:50.855Z,15.82
2023-01-23T18:00:18.897Z,16.52
2023-01-23T18:02:46.087Z,16.73
2023-01-23T18:05:13.228Z,15.95
2023-01-23T18:07:52.228Z,15.88
2023-01-23T18:10:21.109Z,15.35
2023-01-23T18:12:50.331Z,16.92
2023-01-23T18:15:19.212Z,16.25
2023-01-23T18:17:58.093Z,15.77
2023-01-23T18:20:25.341Z,17.85
2023-01-23T18:22:51.885Z,16.50
2023-01-23T18:25:19.631Z,16.80
2023-01-23T18:27:48.957Z,15.00
2023-01-23T18:30:21.632Z,15.63
2023-01-23T18:32:48.135Z,16.63
2023-01-23T18:35:23.773Z,16.33
2023-01-23T18:38:09.207Z,16.07
2023-01-23T18:40:38.531Z,19.50
2023-01-23T18:43:14.331Z,17.30
2023-01-23T18:45:40.991Z,17.02
2023-01-23T18:48:24.654Z,18.80
2023-01-23T18:51:05.821Z,16.95
2023-01-23T18:53:34.991Z,19.02
2023-01-23T18:56:01.307Z,15.30
2023-01-23T18:58:38.187Z,17.15
2023-01-23T19:01:23.825Z,18.83
2023-01-23T19:03:50.454Z,15.87
2023-01-23T19:06:22.225Z,16.35
2023-01-23T19:08:50.112Z,17.20
2023-01-23T19:11:21.359Z,17.17
2023-01-23T19:13:56.439Z,15.90
2023-01-23T19:16:29.287Z,18.25
2023-01-23T19:19:16.269Z,16.48
2023-01-23T19:21:45.739Z,17.13
2023-01-23T19:24:12.332Z,18.25
2023-01-23T19:26:40.068Z,19.27
2023-01-23T19:29:20.365Z,18.23
2023-01-23T19:32:03.113Z,17.00
2023-01-23T19:34:30.878Z,17.95
2023-01-23T19:36:57.184Z,18.55
2023-01-23T19:39:23.474Z,16.80
2023-01-23T19:41:49.819Z,16.30
2023-01-23T19:44:16.930Z,18.27
2023-01-23T19:46:43.770Z,18.38
2023-01-23T19:49:10.588Z,16.23
2023-01-23T19:54:03.532Z,16.15
2023-01-23T19:56:30.369Z,19.60
2023-01-23T20:01:26.390Z,18.10
2023-01-23T20:03:52.716Z,17.20
2023-01-23T20:06:19.190Z,18.67
2023-01-23T20:08:45.520Z,17.55
2023-01-23T20:11:12.319Z,17.65
2023-01-23T20:13:40.818Z,18.20
2023-01-23T20:16:18.461Z,19.23
2023-01-23T20:18:47.907Z,17.80
2023-01-23T20:21:18.181Z,17.77
2023-01-23T20:23:45.058Z,19.58
2023-01-23T20:26:11.579Z,18.13
2023-01-23T20:28:37.991Z,18.02
2023-01-23T20:31:08.723Z,17.90
2023-01-23T20:33:35.524Z,19.05
2023-01-23T20:36:01.864Z,19.60
2023-01-23T20:38:28.533Z,17.08
2023-01-23T20:40:54.945Z,21.02
2023-01-23T20:43:21.418Z,21.20
2023-01-23T20:45:49.025Z,21.15
2023-01-23T20:48:15.867Z,19.13
2023-01-23T20:50:42.540Z,17.95
2023-01-23T20:53:30.020Z,18.88
2023-01-23T20:56:04.422Z,19.48
2023-01-23T20:58:50.369Z,18.52
2023-01-23T21:01:18.335Z,20.75
2023-01-23T21:03:46.654Z,20.30
2023-01-23T21:06:15.075Z,18.70
2023-01-23T21:08:41.913Z,19.20
2023-01-23T21:11:09.733Z,18.05
2023-01-23T21:13:36.652Z,19.42
2023-01-23T21:18:29.312Z,18.25
2023-01-23T21:20:55.638Z,18.77
2023-01-23T21:23:21.922Z,20.63
2023-01-23T21:25:48.320Z,20.42
2023-01-23T21:28:14.678Z,20.38
2023-01-23T21:30:41.083Z,21.20
2023-01-23T21:33:07.523Z,19.80
2023-01-23T21:35:33.842Z,22.60
2023-01-23T21:38:01.603Z,19.92
2023-01-23T21:40:27.923Z,19.30
2023-01-23T21:42:54.215Z,20.83
2023-01-23T21:45:20.809Z,18.35
2023-01-23T21:47:47.351Z,18.83
2023-01-23T21:50:17.457Z,18.90
2023-01-23T21:52:44.118Z,19.65
2023-01-23T21:55:10.409Z,19.38
2023-01-23T21:57:36.688Z,20.88
2023-01-23T22:00:22.032Z,20.98
2023-01-23T22:02:48.457Z,21.17
2023-01-23T22:05:14.990Z,21.52
2023-01-23T22:07:41.370Z,18.88
2023-01-23T22:10:08.179Z,19.38
2023-01-23T22:15:00.753Z,20.52
2023-01-23T22:17:27.045Z,19.58
2023-01-23T22:19:53.426Z,21.10
2023-01-23T22:22:20.877Z,19.13
2023-01-23T22:24:47.434Z,19.88
2023-01-23T22:27:13.778Z,17.60
2023-01-23T22:29:40.123Z,20.83
2023-01-23T22:32:06.488Z,17.88
2023-01-23T22:34:32.929Z,18.23
2023-01-23T22:37:00.471Z,20.23
2023-01-23T22:39:27.092Z,19.73
2023-01-23T22:41:53.454Z,21.27
2023-01-23T22:44:19.817Z,19.70
2023-01-23T22:46:46.265Z,18.85
2023-01-23T22:49:12.591Z,19.63
2023-01-23T22:51:39.091Z,18.10
2023-01-23T22:54:06.076Z,18.58
2023-01-23T22:56:32.438Z,21.70
2023-01-23T22:59:01.107Z,19.67
2023-01-23T23:01:27.591Z,19.20
2023-01-23T23:03:54.132Z,19.75
2023-01-23T23:06:20.632Z,18.23
2023-01-23T23:08:48.156Z,19.35
2023-01-23T23:11:14.728Z,20.05
2023-01-23T23:13:41.050Z,18.00
2023-01-23T23:16:14.855Z,18.65
2023-01-23T23:18:41.632Z,20.35
2023-01-23T23:21:09.515Z,19.55
2023-01-23T23:23:36.023Z,17.70
2023-01-23T23:26:02.777Z,19.70
2023-01-23T23:28:30.347Z,17.75
2023-01-23T23:30:56.681Z,18.08
2023-01-23T23:33:23.113Z,17.92
2023-01-23T23:35:49.507Z,17.52
2023-01-23T23:38:16.226Z,17.38
2023-01-23T23:40:42.914Z,18.48
2023-01-23T23:43:09.469Z,18.30
2023-01-23T23:45:36.145Z,19.45
2023-01-23T23:48:02.518Z,19.17
2023-01-23T23:50:29.169Z,19.08
2023-01-23T23:52:55.556Z,18.65
2023-01-23T23:55:22.312Z,17.98
2023-01-23T23:57:49.018Z,17.20
